createdAt,value
2023-02-09T00:00:12.018Z,5.15
2023-02-09T00:02:45.431Z,4.30
2023-02-09T00:05:14.581Z,7.20
2023-02-09T00:07:43.559Z,4.88
2023-02-09T00:10:12.748Z,5.28
2023-02-09T00:12:59.189Z,5.60
2023-02-09T00:15:29.590Z,5.18
2023-02-09T00:17:58.637Z,5.43
2023-02-09T00:20:28.161Z,4.22
2023-02-09T00:22:57.269Z,6.10
2023-02-09T00:25:26.454Z,4.40
2023-02-09T00:27:55.547Z,3.55
2023-02-09T00:30:24.691Z,5.50
2023-02-09T00:32:55.160Z,6.20
2023-02-09T00:35:24.311Z,5.88
2023-02-09T00:37:53.888Z,4.75
2023-02-09T00:40:23.613Z,3.92
2023-02-09T00:42:52.686Z,6.50
2023-02-09T00:45:21.738Z,4.85
2023-02-09T00:47:50.728Z,4.35
2023-02-09T00:50:21.254Z,3.30
2023-02-09T00:52:50.886Z,6.40
2023-02-09T00:55:20.376Z,7.40
2023-02-09T00:57:49.391Z,8.63
2023-02-09T01:00:21.699Z,5.43
2023-02-09T01:02:50.733Z,4.85
2023-02-09T01:05:21.318Z,5.30
2023-02-09T01:07:50.759Z,5.10
2023-02-09T01:10:19.842Z,6.90
2023-02-09T01:12:49.809Z,4.03
2023-02-09T01:15:19.013Z,5.82
2023-02-09T01:17:47.988Z,5.18
2023-02-09T01:20:17.377Z,6.13
2023-02-09T01:22:47.923Z,3.83
2023-02-09T01:25:17.338Z,5.63
2023-02-09T01:27:46.395Z,4.10
2023-02-09T01:30:15.988Z,6.43
2023-02-09T01:32:45.132Z,6.15
2023-02-09T01:35:14.328Z,6.57
2023-02-09T01:37:43.434Z,6.15
2023-02-09T01:40:14.239Z,6.30
2023-02-09T01:42:43.318Z,7.00
2023-02-09T01:45:24.209Z,8.13
2023-02-09T01:47:59.253Z,10.13
2023-02-09T01:50:30.344Z,14.90
2023-02-09T01:52:59.578Z,5.78
2023-02-09T01:55:35.207Z,6.65
2023-02-09T01:58:10.109Z,5.63
2023-02-09T02:00:39.364Z,11.95
2023-02-09T02:03:13.140Z,8.68
2023-02-09T02:05:46.027Z,10.27
2023-02-09T02:08:21.806Z,10.90
2023-02-09T02:10:53.438Z,6.30
2023-02-09T02:15:59.434Z,6.78
2023-02-09T02:18:42.155Z,11.45
2023-02-09T02:21:40.854Z,13.27
2023-02-09T02:24:38.849Z,10.35
2023-02-09T02:27:11.310Z,8.68
2023-02-09T02:30:15.510Z,7.55
2023-02-09T02:33:14.852Z,8.98
2023-02-09T02:35:51.175Z,15.70
2023-02-09T02:38:25.729Z,14.02
2023-02-09T02:41:05.514Z,8.15
2023-02-09T02:43:44.863Z,9.00
2023-02-09T02:46:20.346Z,8.70
2023-02-09T02:48:56.029Z,10.68
2023-02-09T02:51:30.653Z,9.57
2023-02-09T02:54:03.900Z,7.70
2023-02-09T02:56:37.813Z,14.88
2023-02-09T02:59:10.220Z,11.07
2023-02-09T03:01:44.414Z,14.50
2023-02-09T03:04:16.398Z,12.50
2023-02-09T03:06:45.461Z,15.00
2023-02-09T03:09:15.184Z,12.73
2023-02-09T03:11:47.244Z,13.15
2023-02-09T03:14:38.050Z,10.35
2023-02-09T03:17:20.027Z,15.43
2023-02-09T03:19:55.890Z,9.88
2023-02-09T03:22:31.705Z,15.88
2023-02-09T03:25:08.109Z,11.77
2023-02-09T03:27:42.580Z,13.32
2023-02-09T03:30:14.785Z,12.20
2023-02-09T03:32:47.604Z,13.52
2023-02-09T03:35:20.756Z,7.82
2023-02-09T03:37:49.777Z,13.32
2023-02-09T03:40:19.386Z,11.98
2023-02-09T03:42:48.411Z,13.70
2023-02-09T03:45:17.521Z,21.13
2023-02-09T03:47:46.534Z,11.25
2023-02-09T03:50:15.579Z,15.48
2023-02-09T03:52:46.029Z,22.30
2023-02-09T03:55:15.190Z,14.60
2023-02-09T03:57:44.221Z,16.30
2023-02-09T04:00:14.690Z,16.33
2023-02-09T04:02:44.448Z,16.27
2023-02-09T04:05:13.845Z,9.15
2023-02-09T04:07:43.049Z,14.77
2023-02-09T04:10:13.744Z,13.55
2023-02-09T04:12:42.734Z,10.75
2023-02-09T04:15:12.307Z,15.20
2023-02-09T04:17:41.328Z,16.83
2023-02-09T04:20:10.907Z,16.27
2023-02-09T04:22:40.010Z,13.50
2023-02-09T04:25:09.471Z,20.73
2023-02-09T04:27:40.008Z,9.55
2023-02-09T04:30:10.624Z,19.67
2023-02-09T04:32:39.696Z,13.68
2023-02-09T04:35:09.119Z,13.63
2023-02-09T04:37:38.093Z,10.23
2023-02-09T04:40:07.927Z,8.13
2023-02-09T04:42:36.952Z,11.23
2023-02-09T04:45:08.496Z,11.35
2023-02-09T04:47:37.497Z,13.45
2023-02-09T04:50:07.189Z,15.18
2023-02-09T04:52:36.246Z,10.52
2023-02-09T04:55:05.790Z,15.77
2023-02-09T04:57:52.135Z,12.77
2023-02-09T05:00:22.805Z,14.23
2023-02-09T05:02:51.848Z,11.68
2023-02-09T05:05:20.895Z,11.18
2023-02-09T05:07:50.071Z,7.65
2023-02-09T05:10:19.436Z,9.00
2023-02-09T05:12:48.674Z,12.27
2023-02-09T05:15:17.718Z,13.13
2023-02-09T05:17:48.116Z,12.43
2023-02-09T05:20:17.415Z,12.18
2023-02-09T05:22:46.998Z,11.90
2023-02-09T05:25:17.050Z,16.35
2023-02-09T05:27:46.036Z,16.08
2023-02-09T05:30:15.297Z,9.27
2023-02-09T05:32:44.269Z,11.85
2023-02-09T05:35:14.858Z,11.57
2023-02-09T05:37:43.946Z,12.65
2023-02-09T05:40:14.012Z,13.25
2023-02-09T05:42:43.027Z,13.88
2023-02-09T05:45:12.392Z,12.82
2023-02-09T05:47:41.374Z,11.10
2023-02-09T05:50:10.816Z,13.43
2023-02-09T05:52:41.224Z,13.73
2023-02-09T05:55:10.326Z,15.95
2023-02-09T05:57:39.374Z,14.20
2023-02-09T06:00:09.484Z,11.32
2023-02-09T06:02:41.622Z,18.83
2023-02-09T06:05:10.662Z,15.40
2023-02-09T06:07:41.005Z,12.75
2023-02-09T06:10:10.751Z,15.00
2023-02-09T06:12:41.303Z,13.73
2023-02-09T06:15:11.632Z,16.58
2023-02-09T06:17:40.648Z,13.55
2023-02-09T06:20:10.645Z,13.90
2023-02-09T06:22:41.126Z,13.93
2023-02-09T06:25:10.422Z,11.95
2023-02-09T06:27:39.558Z,18.63
2023-02-09T06:30:09.746Z,11.73
2023-02-09T06:32:38.758Z,11.23
2023-02-09T06:35:08.167Z,15.10
2023-02-09T06:37:37.282Z,10.68
2023-02-09T06:40:08.511Z,12.27
2023-02-09T06:45:14.717Z,15.07
2023-02-09T06:47:44.086Z,12.68
2023-02-09T06:50:15.027Z,12.25
2023-02-09T06:55:15.393Z,12.43
2023-02-09T06:57:44.506Z,19.38
2023-02-09T07:00:15.776Z,13.15
2023-02-09T07:02:45.311Z,13.25
2023-02-09T07:05:16.083Z,15.63
2023-02-09T07:07:45.959Z,15.10
2023-02-09T07:10:18.255Z,14.60
2023-02-09T07:12:47.361Z,12.93
2023-02-09T07:15:16.617Z,12.10
2023-02-09T07:17:45.656Z,15.38
2023-02-09T07:20:15.299Z,11.55
2023-02-09T07:22:44.347Z,16.35
2023-02-09T07:25:18.279Z,13.68
2023-02-09T07:27:47.319Z,10.18
2023-02-09T07:30:17.674Z,12.23
2023-02-09T07:32:46.878Z,13.10
2023-02-09T07:35:16.083Z,14.07
2023-02-09T07:37:45.090Z,12.35
2023-02-09T07:40:14.748Z,15.60
2023-02-09T07:42:45.253Z,14.52
2023-02-09T07:45:14.603Z,13.20
2023-02-09T07:47:44.142Z,10.63
2023-02-09T07:50:13.212Z,14.38
2023-02-09T07:52:42.316Z,13.25
2023-02-09T07:55:11.363Z,16.08
2023-02-09T07:57:40.474Z,7.65
2023-02-09T08:00:21.270Z,11.90
2023-02-09T08:02:50.988Z,12.48
2023-02-09T08:05:24.066Z,11.20
2023-02-09T08:07:53.286Z,11.02
2023-02-09T08:10:22.497Z,9.27
2023-02-09T08:13:00.927Z,11.00
2023-02-09T08:15:37.044Z,16.38
2023-02-09T08:18:13.026Z,10.27
2023-02-09T08:20:43.311Z,13.88
2023-02-09T08:23:17.051Z,11.90
2023-02-09T08:25:47.982Z,8.63
2023-02-09T08:30:48.216Z,10.45
2023-02-09T08:35:46.698Z,11.55
2023-02-09T08:38:15.914Z,8.38
2023-02-09T08:40:45.112Z,9.30
2023-02-09T08:43:15.290Z,13.80
2023-02-09T08:45:44.900Z,12.52
2023-02-09T08:48:15.624Z,12.50
2023-02-09T08:50:44.657Z,11.18
2023-02-09T08:53:13.673Z,18.02
2023-02-09T08:55:42.734Z,17.48
2023-02-09T08:58:13.117Z,13.80
2023-02-09T09:00:42.191Z,17.85
2023-02-09T09:03:11.393Z,11.35
2023-02-09T09:05:41.902Z,10.63
2023-02-09T09:08:11.009Z,7.53
2023-02-09T09:10:40.058Z,15.05
2023-02-09T09:13:09.101Z,15.45
2023-02-09T09:15:38.520Z,12.20
2023-02-09T09:18:07.617Z,20.80
2023-02-09T09:20:39.524Z,15.60
2023-02-09T09:23:10.813Z,16.10
2023-02-09T09:28:09.141Z,16.48
2023-02-09T09:30:38.600Z,15.60
2023-02-09T09:33:07.687Z,13.38
2023-02-09T09:35:36.753Z,16.40
2023-02-09T09:38:05.840Z,17.58
2023-02-09T09:40:40.517Z,14.35
2023-02-09T09:43:20.768Z,13.95
2023-02-09T09:45:50.450Z,20.50
2023-02-09T09:48:24.752Z,12.93
2023-02-09T09:50:57.507Z,17.35
2023-02-09T09:53:33.121Z,12.32
2023-02-09T09:56:07.551Z,10.48
2023-02-09T09:58:40.439Z,9.32
2023-02-09T10:01:13.975Z,15.52
2023-02-09T10:03:43.399Z,17.50
2023-02-09T10:06:17.705Z,17.98
2023-02-09T10:08:53.987Z,12.10
2023-02-09T10:11:31.588Z,13.18
2023-02-09T10:14:00.671Z,12.77
2023-02-09T10:16:34.529Z,10.95
2023-02-09T10:19:05.731Z,14.55
2023-02-09T10:21:36.698Z,15.15
2023-02-09T10:24:13.495Z,13.63
2023-02-09T10:26:44.261Z,9.85
2023-02-09T10:29:27.290Z,11.98
2023-02-09T10:31:59.989Z,10.77
2023-02-09T10:34:33.635Z,14.27
2023-02-09T10:37:21.939Z,11.15
2023-02-09T10:40:11.545Z,12.52
2023-02-09T10:42:50.888Z,11.70
2023-02-09T10:45:26.845Z,10.25
2023-02-09T10:48:00.913Z,14.77
2023-02-09T10:50:30.571Z,17.30
2023-02-09T10:53:01.669Z,20.23
2023-02-09T10:55:36.778Z,13.02
2023-02-09T10:58:22.086Z,17.70
2023-02-09T11:00:55.055Z,13.00
2023-02-09T11:03:26.456Z,12.57
2023-02-09T11:08:40.297Z,19.95
2023-02-09T11:11:19.402Z,13.32
2023-02-09T11:13:49.791Z,19.17
2023-02-09T11:16:52.086Z,12.83
2023-02-09T11:19:46.643Z,12.82
2023-02-09T11:22:20.331Z,8.93
2023-02-09T11:25:03.442Z,9.05
2023-02-09T11:27:51.884Z,13.30
2023-02-09T11:30:37.284Z,15.27
2023-02-09T11:33:12.025Z,13.35
2023-02-09T11:35:48.655Z,9.52
2023-02-09T11:38:20.811Z,9.88
2023-02-09T11:40:53.785Z,14.85
2023-02-09T11:43:28.846Z,14.50
2023-02-09T11:46:04.913Z,12.65
2023-02-09T11:48:40.024Z,19.48
2023-02-09T11:51:13.045Z,10.65
2023-02-09T11:53:48.885Z,13.32
2023-02-09T11:56:21.085Z,16.70
2023-02-09T11:58:56.098Z,12.35
2023-02-09T12:01:38.101Z,12.23
2023-02-09T12:04:15.236Z,9.90
2023-02-09T12:06:47.665Z,15.70
2023-02-09T12:09:35.241Z,9.15
2023-02-09T12:12:14.606Z,7.18
2023-02-09T12:15:02.505Z,10.32
2023-02-09T12:17:43.087Z,10.60
2023-02-09T12:20:28.345Z,5.47
2023-02-09T12:23:01.122Z,14.20
2023-02-09T12:25:51.515Z,14.35
2023-02-09T12:28:39.771Z,10.83
2023-02-09T12:31:25.254Z,9.07
2023-02-09T12:34:28.643Z,13.05
2023-02-09T12:37:28.474Z,11.30
2023-02-09T12:40:23.899Z,8.75
2023-02-09T12:43:29.561Z,12.43
2023-02-09T12:46:23.522Z,13.40
2023-02-09T12:49:20.099Z,8.40
2023-02-09T12:52:18.306Z,17.23
2023-02-09T12:54:50.245Z,10.40
2023-02-09T12:57:58.160Z,12.60
2023-02-09T13:01:05.931Z,14.70
2023-02-09T13:03:43.446Z,11.55
2023-02-09T13:06:27.519Z,13.02
2023-02-09T13:09:01.018Z,10.63
2023-02-09T13:11:34.131Z,15.00
2023-02-09T13:14:07.724Z,10.00
2023-02-09T13:16:59.387Z,12.13
2023-02-09T13:19:54.555Z,13.52
2023-02-09T13:22:31.730Z,13.35
2023-02-09T13:25:13.918Z,13.00
2023-02-09T13:27:47.994Z,10.77
2023-02-09T13:30:31.354Z,11.40
2023-02-09T13:33:09.315Z,5.63
2023-02-09T13:35:43.804Z,15.98
2023-02-09T13:38:18.334Z,12.02
2023-02-09T13:40:51.659Z,9.63
2023-02-09T13:43:28.425Z,9.60
2023-02-09T13:46:00.400Z,8.13
2023-02-09T13:48:33.174Z,10.25
2023-02-09T13:51:06.267Z,10.23
2023-02-09T13:53:35.823Z,17.17
2023-02-09T13:56:13.124Z,15.35
2023-02-09T13:58:42.536Z,16.65
2023-02-09T14:01:18.220Z,10.93
2023-02-09T14:03:58.293Z,9.20
2023-02-09T14:06:35.015Z,10.88
2023-02-09T14:09:06.169Z,9.77
2023-02-09T14:11:42.947Z,9.77
2023-02-09T14:14:17.761Z,14.13
2023-02-09T14:16:53.703Z,15.73
2023-02-09T14:19:28.363Z,12.07
2023-02-09T14:21:57.662Z,12.10
2023-02-09T14:24:29.488Z,16.52
2023-02-09T14:27:05.031Z,13.38
2023-02-09T14:29:37.028Z,7.82
2023-02-09T14:32:33.289Z,8.57
2023-02-09T14:35:20.639Z,17.48
2023-02-09T14:37:51.508Z,12.40
2023-02-09T14:40:25.273Z,9.27
2023-02-09T14:43:01.729Z,13.00
2023-02-09T14:45:39.939Z,11.88
2023-02-09T14:48:20.297Z,16.25
2023-02-09T14:50:50.721Z,16.45
2023-02-09T14:53:20.243Z,17.43
2023-02-09T14:55:50.575Z,11.07
2023-02-09T14:58:25.526Z,12.65
2023-02-09T15:00:57.089Z,11.52
2023-02-09T15:03:27.616Z,13.05
2023-02-09T15:06:00.429Z,13.02
2023-02-09T15:08:33.408Z,16.58
2023-02-09T15:11:25.379Z,18.00
2023-02-09T15:13:59.825Z,18.38
2023-02-09T15:16:28.906Z,12.75
2023-02-09T15:18:58.297Z,12.63
2023-02-09T15:21:27.410Z,11.85
2023-02-09T15:23:56.687Z,17.85
2023-02-09T15:26:26.942Z,13.80
2023-02-09T15:28:57.600Z,17.00
2023-02-09T15:31:28.756Z,13.65
2023-02-09T15:33:57.820Z,15.20
2023-02-09T15:36:28.287Z,15.15
2023-02-09T15:38:57.661Z,12.70
2023-02-09T15:41:44.489Z,10.15
2023-02-09T15:44:37.786Z,14.93
2023-02-09T15:47:24.344Z,13.80
2023-02-09T15:49:53.396Z,13.55
2023-02-09T15:52:22.495Z,12.63
2023-02-09T15:54:53.495Z,17.17
2023-02-09T15:57:25.285Z,12.63
2023-02-09T15:59:55.789Z,12.18
2023-02-09T16:02:25.077Z,17.35
2023-02-09T16:04:54.187Z,12.32
2023-02-09T16:07:26.670Z,28.08
2023-02-09T16:09:55.832Z,104.15
2023-02-09T16:12:24.939Z,128.30
2023-02-09T16:14:55.384Z,249.63
2023-02-09T16:17:24.471Z,299.13
2023-02-09T16:19:53.806Z,358.58
2023-02-09T16:22:25.246Z,468.35
2023-02-09T16:27:25.583Z,261.60
2023-02-09T16:29:56.865Z,154.85
2023-02-09T16:35:04.467Z,70.88
2023-02-09T16:37:40.617Z,33.08
2023-02-09T16:40:25.547Z,25.77
2023-02-09T16:42:55.598Z,30.13
2023-02-09T16:45:27.367Z,53.80
2023-02-09T16:47:59.696Z,32.47
2023-02-09T16:50:33.397Z,29.67
2023-02-09T16:53:04.823Z,35.03
2023-02-09T16:55:35.525Z,60.50
2023-02-09T16:58:07.376Z,53.22
2023-02-09T17:00:39.681Z,112.85
2023-02-09T17:03:15.709Z,140.55
2023-02-09T17:05:47.778Z,104.63
2023-02-09T17:08:19.723Z,121.32
2023-02-09T17:10:50.824Z,96.40
2023-02-09T17:13:20.942Z,130.95
2023-02-09T17:15:53.583Z,161.73
2023-02-09T17:18:25.522Z,121.65
2023-02-09T17:20:56.623Z,34.38
2023-02-09T17:23:27.531Z,45.30
2023-02-09T17:25:57.221Z,17.55
2023-02-09T17:28:28.729Z,36.15
2023-02-09T17:31:02.978Z,10.48
2023-02-09T17:33:35.792Z,12.65
2023-02-09T17:38:55.332Z,8.57
2023-02-09T17:41:30.136Z,10.70
2023-02-09T17:44:22.223Z,14.35
2023-02-09T17:47:03.193Z,11.48
2023-02-09T17:49:34.276Z,8.02
2023-02-09T17:52:03.346Z,14.00
2023-02-09T17:54:36.524Z,9.13
2023-02-09T17:57:05.903Z,16.80
2023-02-09T17:59:35.249Z,10.68
2023-02-09T18:02:15.539Z,13.02
2023-02-09T18:04:50.247Z,19.80
2023-02-09T18:07:20.967Z,10.77
2023-02-09T18:09:50.166Z,12.35
2023-02-09T18:12:22.548Z,12.07
2023-02-09T18:14:51.640Z,19.00
2023-02-09T18:17:23.624Z,22.77
2023-02-09T18:19:53.285Z,15.52
2023-02-09T18:22:22.485Z,21.77
2023-02-09T18:24:52.144Z,33.35
2023-02-09T18:27:24.581Z,26.45
2023-02-09T18:29:54.284Z,22.30
2023-02-09T18:32:25.888Z,24.02
2023-02-09T18:34:55.030Z,15.02
2023-02-09T18:37:24.335Z,12.32
2023-02-09T18:39:54.179Z,12.95
2023-02-09T18:42:23.669Z,12.88
2023-02-09T18:44:52.735Z,13.65
2023-02-09T18:47:22.273Z,18.10
2023-02-09T18:49:52.878Z,12.23
2023-02-09T18:52:25.167Z,16.30
2023-02-09T18:54:54.288Z,13.57
2023-02-09T18:57:23.287Z,13.50
2023-02-09T18:59:52.436Z,13.45
2023-02-09T19:02:23.556Z,28.48
2023-02-09T19:04:54.144Z,15.15
2023-02-09T19:07:23.211Z,15.68
2023-02-09T19:09:52.462Z,17.25
2023-02-09T19:12:21.492Z,10.48
2023-02-09T19:14:52.433Z,12.35
2023-02-09T19:17:22.454Z,14.15
2023-02-09T19:19:53.382Z,16.80
2023-02-09T19:22:23.034Z,13.88
2023-02-09T19:24:55.321Z,15.50
2023-02-09T19:27:26.228Z,11.15
2023-02-09T19:29:57.076Z,17.00
2023-02-09T19:32:27.818Z,12.70
2023-02-09T19:34:58.253Z,9.68
2023-02-09T19:37:27.291Z,47.45
2023-02-09T19:40:04.631Z,24.83
2023-02-09T19:42:35.350Z,27.30
2023-02-09T19:45:04.714Z,16.75
2023-02-09T19:47:38.105Z,18.52
2023-02-09T19:50:08.812Z,19.27
2023-02-09T19:52:38.937Z,17.33
2023-02-09T19:55:08.801Z,15.35
2023-02-09T19:57:37.814Z,19.83
2023-02-09T20:00:07.452Z,18.45
2023-02-09T20:02:38.020Z,13.52
2023-02-09T20:05:09.725Z,17.73
2023-02-09T20:07:39.334Z,13.85
2023-02-09T20:10:09.223Z,21.42
2023-02-09T20:12:38.377Z,17.02
2023-02-09T20:15:07.734Z,19.45
2023-02-09T20:17:36.947Z,22.80
2023-02-09T20:20:10.058Z,40.58
2023-02-09T20:22:40.662Z,36.05
2023-02-09T20:25:10.891Z,32.08
2023-02-09T20:27:41.284Z,23.58
2023-02-09T20:30:11.503Z,22.23
2023-02-09T20:32:40.712Z,17.25
2023-02-09T20:35:11.898Z,19.85
2023-02-09T20:37:42.440Z,16.10
2023-02-09T20:40:13.153Z,25.80
2023-02-09T20:42:59.944Z,32.33
2023-02-09T20:45:49.148Z,18.65
2023-02-09T20:48:19.692Z,23.10
2023-02-09T20:50:51.187Z,35.55
2023-02-09T20:55:53.011Z,29.08
2023-02-09T20:58:22.252Z,30.90
2023-02-09T21:00:51.822Z,24.65
2023-02-09T21:03:21.190Z,17.80
2023-02-09T21:05:50.240Z,22.85
2023-02-09T21:08:20.045Z,21.77
2023-02-09T21:10:56.905Z,17.13
2023-02-09T21:13:26.235Z,14.50
2023-02-09T21:15:57.670Z,23.80
2023-02-09T21:18:27.750Z,23.60
2023-02-09T21:20:56.912Z,21.08
2023-02-09T21:23:26.140Z,27.55
2023-02-09T21:26:03.289Z,48.80
2023-02-09T21:28:32.580Z,43.17
2023-02-09T21:31:01.700Z,25.25
2023-02-09T21:33:33.224Z,25.08
2023-02-09T21:36:02.942Z,25.95
2023-02-09T21:38:32.135Z,40.05
2023-02-09T21:41:02.580Z,30.73
2023-02-09T21:43:31.675Z,30.73
2023-02-09T21:46:00.814Z,25.33
2023-02-09T21:48:29.895Z,24.95
2023-02-09T21:50:59.122Z,25.63
2023-02-09T21:53:28.333Z,26.17
2023-02-09T21:55:57.492Z,26.33
2023-02-09T21:58:28.572Z,22.92
2023-02-09T22:00:59.071Z,32.30
2023-02-09T22:03:28.193Z,27.42
2023-02-09T22:05:57.754Z,27.67
2023-02-09T22:08:27.242Z,25.30
2023-02-09T22:10:56.716Z,22.83
2023-02-09T22:13:28.274Z,27.83
2023-02-09T22:15:58.550Z,27.85
2023-02-09T22:18:27.782Z,21.00
2023-02-09T22:20:56.884Z,22.15
2023-02-09T22:23:27.044Z,18.15
2023-02-09T22:25:59.940Z,21.70
2023-02-09T22:28:31.985Z,26.67
2023-02-09T22:31:07.483Z,22.77
2023-02-09T22:33:36.913Z,19.95
2023-02-09T22:36:07.416Z,21.35
2023-02-09T22:38:37.310Z,15.95
2023-02-09T22:41:07.550Z,17.60
2023-02-09T22:43:38.005Z,18.38
2023-02-09T22:46:07.327Z,27.98
2023-02-09T22:48:36.527Z,22.45
2023-02-09T22:51:06.285Z,24.25
2023-02-09T22:53:35.633Z,24.35
2023-02-09T22:56:05.937Z,21.77
2023-02-09T22:58:35.059Z,24.60
2023-02-09T23:01:05.945Z,24.30
2023-02-09T23:03:35.528Z,29.45
2023-02-09T23:06:08.110Z,24.98
2023-02-09T23:08:37.423Z,29.83
2023-02-09T23:11:09.219Z,25.50
2023-02-09T23:13:39.077Z,34.85
2023-02-09T23:16:15.233Z,31.17
2023-02-09T23:18:48.685Z,28.60
2023-02-09T23:21:19.129Z,32.40
2023-02-09T23:23:48.554Z,21.02
2023-02-09T23:26:18.871Z,25.75
2023-02-09T23:28:48.492Z,25.50
2023-02-09T23:31:20.891Z,25.55
2023-02-09T23:33:50.691Z,25.95
2023-02-09T23:36:22.337Z,28.70
2023-02-09T23:38:55.218Z,27.55
2023-02-09T23:41:25.241Z,27.60
2023-02-09T23:43:54.570Z,18.58
2023-02-09T23:46:28.435Z,26.02
2023-02-09T23:48:58.261Z,22.10
2023-02-09T23:51:29.816Z,22.45
2023-02-09T23:54:00.716Z,19.55
2023-02-09T23:56:31.916Z,23.00
